createdAt,value
2018-02-18T00:01:33.276Z,66.07
2018-02-18T00:04:01.136Z,70.07
2018-02-18T00:06:29.035Z,80.03
2018-02-18T00:08:56.929Z,93.95
2018-02-18T00:11:24.862Z,97.05
2018-02-18T00:13:52.922Z,80.22
2018-02-18T00:16:20.872Z,59.42
2018-02-18T00:18:48.680Z,56.65
2018-02-18T00:21:16.598Z,57.55
2018-02-18T00:23:44.564Z,65.85
2018-02-18T00:26:12.442Z,57.13
2018-02-18T00:28:40.284Z,56.42
2018-02-18T00:31:09.003Z,54.40
2018-02-18T00:33:36.992Z,56.83
2018-02-18T00:36:04.968Z,56.67
2018-02-18T00:38:32.937Z,52.72
2018-02-18T00:41:00.887Z,51.15
2018-02-18T00:43:28.774Z,57.45
2018-02-18T00:45:56.723Z,51.60
2018-02-18T00:48:24.754Z,57.97
2018-02-18T00:50:52.718Z,58.35
2018-02-18T00:53:21.356Z,55.42
2018-02-18T00:55:49.320Z,58.53
2018-02-18T00:58:17.234Z,63.47
2018-02-18T01:00:45.863Z,59.85
2018-02-18T01:03:13.714Z,51.75
2018-02-18T01:05:41.534Z,61.45
2018-02-18T01:08:09.479Z,57.13
2018-02-18T01:10:37.327Z,67.30
2018-02-18T01:13:05.296Z,54.55
2018-02-18T01:15:33.279Z,58.58
2018-02-18T01:18:01.150Z,56.63
2018-02-18T01:20:29.110Z,64.90
2018-02-18T01:22:57.323Z,60.97
2018-02-18T01:25:25.871Z,57.83
2018-02-18T01:27:53.748Z,57.10
2018-02-18T01:30:21.571Z,56.55
2018-02-18T01:32:49.461Z,52.90
2018-02-18T01:35:18.161Z,53.00
2018-02-18T01:37:46.032Z,52.92
2018-02-18T01:40:13.906Z,56.92
2018-02-18T01:42:41.820Z,56.60
2018-02-18T01:45:09.714Z,57.08
2018-02-18T01:47:41.230Z,58.97
2018-02-18T01:50:18.054Z,55.83
2018-02-18T01:52:45.955Z,58.70
2018-02-18T01:55:14.612Z,62.40
2018-02-18T01:57:42.418Z,56.22
2018-02-18T02:00:10.374Z,58.95
2018-02-18T02:02:39.044Z,61.05
2018-02-18T02:05:06.924Z,56.65
2018-02-18T02:07:35.982Z,62.85
2018-02-18T02:10:04.318Z,58.20
2018-02-18T02:12:32.197Z,59.88
2018-02-18T02:15:00.943Z,56.28
2018-02-18T02:17:29.547Z,54.58
2018-02-18T02:19:57.445Z,52.95
2018-02-18T02:22:25.325Z,56.85
2018-02-18T02:24:53.364Z,52.67
2018-02-18T02:27:21.264Z,50.67
2018-02-18T02:29:49.275Z,56.88
2018-02-18T02:32:17.947Z,49.88
2018-02-18T02:34:46.579Z,58.25
2018-02-18T02:37:14.538Z,53.55
2018-02-18T02:39:42.355Z,49.08
2018-02-18T02:42:10.294Z,50.92
2018-02-18T02:44:38.980Z,52.83
2018-02-18T02:47:06.734Z,52.92
2018-02-18T02:49:35.419Z,50.85
2018-02-18T02:52:03.294Z,54.85
2018-02-18T02:54:31.216Z,54.50
2018-02-18T02:57:00.064Z,51.37
2018-02-18T02:59:28.024Z,55.88
2018-02-18T03:01:55.783Z,52.28
2018-02-18T03:04:23.810Z,61.70
2018-02-18T03:06:52.431Z,57.38
2018-02-18T03:09:20.275Z,57.72
2018-02-18T03:11:48.197Z,63.45
2018-02-18T03:14:16.081Z,62.55
2018-02-18T03:16:44.758Z,58.92
2018-02-18T03:19:13.456Z,55.25
2018-02-18T03:21:42.054Z,59.47
2018-02-18T03:24:09.998Z,64.90
2018-02-18T03:26:38.692Z,73.68
2018-02-18T03:29:07.318Z,73.72
2018-02-18T03:31:35.568Z,71.35
2018-02-18T03:34:03.790Z,73.45
2018-02-18T05:57:38.982Z,108.82
2018-02-18T06:00:24.587Z,89.90
2018-02-18T06:03:06.789Z,103.80
2018-02-18T06:05:42.836Z,93.05
2018-02-18T06:08:18.130Z,86.45
2018-02-18T06:10:52.577Z,90.07
2018-02-18T06:16:10.584Z,102.15
2018-02-18T06:18:43.762Z,102.47
2018-02-18T06:21:19.435Z,150.82
2018-02-18T06:24:21.721Z,131.10
2018-02-18T06:34:37.399Z,95.80
2018-02-18T06:37:17.543Z,86.72
2018-02-18T06:40:33.533Z,96.65
2018-02-18T06:44:33.805Z,104.38
2018-02-18T06:47:26.879Z,122.10
2018-02-18T06:50:11.995Z,117.93
2018-02-18T06:52:44.375Z,84.15
2018-02-18T06:55:17.199Z,82.37
2018-02-18T06:57:47.571Z,133.15
2018-02-18T07:00:30.923Z,121.82
2018-02-18T07:07:03.577Z,90.72
2018-02-18T07:09:36.271Z,221.62
2018-02-18T07:12:20.254Z,102.15
2018-02-18T07:14:55.358Z,179.95
2018-02-18T07:25:21.955Z,96.12
2018-02-18T07:28:06.188Z,83.25
2018-02-18T07:30:57.809Z,89.53
2018-02-18T07:33:30.389Z,105.28
2018-02-18T07:36:01.243Z,87.05
2018-02-18T07:41:45.677Z,82.00
2018-02-18T07:44:35.647Z,82.97
2018-02-18T07:50:31.025Z,72.80
2018-02-18T07:53:05.387Z,77.45
2018-02-18T07:55:41.310Z,86.07
2018-02-18T07:58:20.057Z,70.85
2018-02-18T08:01:29.882Z,78.95
2018-02-18T08:07:07.885Z,76.55
2018-02-18T08:09:49.296Z,71.97
2018-02-18T08:12:32.278Z,86.35
2018-02-18T08:15:12.382Z,77.18
2018-02-18T08:17:45.506Z,109.68
2018-02-18T08:20:19.080Z,115.72
2018-02-18T08:22:52.821Z,102.07
2018-02-18T08:25:28.316Z,107.12
2018-02-18T08:28:09.109Z,84.05
2018-02-18T08:30:50.978Z,76.78
2018-02-18T08:33:33.123Z,98.37
2018-02-18T08:43:38.468Z,64.78
2018-02-18T08:46:12.096Z,74.55
2018-02-18T08:48:57.494Z,81.30
2018-02-18T08:51:29.649Z,68.03
2018-02-18T08:54:02.929Z,62.30
2018-02-18T08:56:36.840Z,65.53
2018-02-18T08:59:10.840Z,69.68
2018-02-18T09:01:49.664Z,61.83
2018-02-18T09:04:25.831Z,59.42
2018-02-18T09:06:59.897Z,63.42
2018-02-18T09:18:57.931Z,72.65
2018-02-18T09:21:31.879Z,73.87
2018-02-18T09:24:08.279Z,64.90
2018-02-18T09:27:29.113Z,67.32
2018-02-18T09:30:07.824Z,61.03
2018-02-18T09:32:42.823Z,62.22
2018-02-18T09:35:32.128Z,70.87
2018-02-18T09:38:12.584Z,62.03
2018-02-18T09:51:12.202Z,65.00
2018-02-18T09:56:34.870Z,60.70
2018-02-18T10:02:20.943Z,62.13
2018-02-18T10:05:26.919Z,54.70
2018-02-18T10:21:20.039Z,58.63
2018-02-18T10:24:06.137Z,59.47
2018-02-18T10:31:52.378Z,58.50
2018-02-18T10:42:29.161Z,52.53
2018-02-18T10:49:01.619Z,49.72
2018-02-18T10:51:46.712Z,59.10
2018-02-18T11:29:58.056Z,51.50
2018-02-18T11:32:44.399Z,51.15
2018-02-18T11:35:52.989Z,54.78
2018-02-18T11:45:11.519Z,44.67
2018-02-18T12:26:29.718Z,26.70
2018-02-18T12:29:16.938Z,28.50
2018-02-18T12:35:26.176Z,16.73
2018-02-18T12:38:08.296Z,18.37
2018-02-18T12:47:03.015Z,18.63
2018-02-18T12:49:50.897Z,18.00
2018-02-18T12:52:39.613Z,15.30
2018-02-18T12:55:21.532Z,13.43
2018-02-18T12:58:00.985Z,11.97
2018-02-18T13:00:49.337Z,15.23
2018-02-18T13:07:32.967Z,10.47
2018-02-18T13:10:06.760Z,12.60
2018-02-18T13:13:00.476Z,13.00
2018-02-18T13:19:25.289Z,12.00
2018-02-18T13:22:19.986Z,10.70
2018-02-18T13:28:25.190Z,15.80
2018-02-18T13:31:24.991Z,11.80
2018-02-18T13:54:51.686Z,13.90
2018-02-18T13:57:38.918Z,16.90
2018-02-18T14:00:28.127Z,15.37
2018-02-18T14:08:29.024Z,13.30
2018-02-18T14:14:32.848Z,11.43
2018-02-18T14:21:25.976Z,12.33
2018-02-18T14:24:31.447Z,14.53
2018-02-18T14:33:23.345Z,11.37
2018-02-18T14:36:16.231Z,13.83
2018-02-18T14:39:13.504Z,14.20
2018-02-18T14:52:39.278Z,12.73
2018-02-18T14:59:02.460Z,14.80
2018-02-18T15:02:16.319Z,13.13
2018-02-18T15:09:16.061Z,8.90
2018-02-18T15:19:02.327Z,12.80
2018-02-18T15:31:19.718Z,11.03
2018-02-18T15:34:00.666Z,14.27
2018-02-18T15:36:40.192Z,14.80
2018-02-18T15:40:47.083Z,12.87
2018-02-18T15:43:26.923Z,17.33
2018-02-18T15:46:11.116Z,16.03
2018-02-18T15:49:24.024Z,13.97
2018-02-18T15:52:03.368Z,15.63
2018-02-18T15:54:58.516Z,14.40
2018-02-18T15:58:58.783Z,15.97
2018-02-18T16:02:05.556Z,13.60
2018-02-18T16:12:49.181Z,17.67
2018-02-18T16:15:50.401Z,14.73
2018-02-18T16:18:39.242Z,14.93
2018-02-18T16:21:51.764Z,14.80
2018-02-18T16:28:39.869Z,16.83
2018-02-18T16:31:25.820Z,16.73
2018-02-18T16:38:18.273Z,14.90
2018-02-18T16:41:07.440Z,17.20
2018-02-18T16:43:40.335Z,13.77
2018-02-18T16:46:11.757Z,17.33
2018-02-18T16:49:19.861Z,16.93
2018-02-18T16:52:01.961Z,17.30
2018-02-18T16:58:31.240Z,20.93
2018-02-18T17:01:36.079Z,17.77
2018-02-18T17:05:15.438Z,18.77
2018-02-18T17:11:33.734Z,23.97
2018-02-18T17:21:57.480Z,21.73
2018-02-18T17:25:03.807Z,23.27
2018-02-18T17:27:53.699Z,18.37
2018-02-18T17:30:41.980Z,19.80
2018-02-18T17:36:32.062Z,17.95
2018-02-18T17:39:32.723Z,21.70
2018-02-18T17:42:14.273Z,15.87
2018-02-18T17:44:58.004Z,17.20
2018-02-18T17:47:55.928Z,21.47
2018-02-18T17:53:32.254Z,59.17
2018-02-18T17:56:19.619Z,67.27
2018-02-18T17:59:06.973Z,45.00
2018-02-18T18:01:55.259Z,43.00
2018-02-18T18:05:13.614Z,38.07
2018-02-18T18:13:29.229Z,52.47
2018-02-18T18:31:31.762Z,58.80
2018-02-18T18:34:31.084Z,43.63
2018-02-18T18:40:23.496Z,59.20
2018-02-18T18:46:23.321Z,67.30
2018-02-18T18:52:32.509Z,77.37
2018-02-18T19:04:27.192Z,56.53
2018-02-18T19:07:08.854Z,54.67
2018-02-18T19:09:49.760Z,54.20
2018-02-18T19:17:13.751Z,56.28
2018-02-18T19:19:59.459Z,55.30
2018-02-18T19:22:37.381Z,65.95
2018-02-18T19:26:15.506Z,63.27
2018-02-18T19:32:12.830Z,66.20
2018-02-18T19:34:57.827Z,64.03
2018-02-18T19:40:43.044Z,53.33
2018-02-18T19:46:31.308Z,58.78
2018-02-18T19:49:41.216Z,54.15
2018-02-18T19:55:58.641Z,58.55
2018-02-18T20:01:47.142Z,55.72
2018-02-18T20:04:41.803Z,56.00
2018-02-18T20:07:19.230Z,56.13
2018-02-18T20:13:18.433Z,55.97
2018-02-18T20:22:05.586Z,68.37
2018-02-18T20:25:00.040Z,68.28
2018-02-18T20:31:07.371Z,72.78
2018-02-18T20:43:48.587Z,70.47
2018-02-18T20:46:32.122Z,78.60
2018-02-18T20:49:29.627Z,74.40
2018-02-18T20:52:08.984Z,75.37
2018-02-18T20:57:27.669Z,80.87
2018-02-18T21:00:04.596Z,84.20
2018-02-18T21:02:48.020Z,83.80
2018-02-18T21:05:20.402Z,83.15
2018-02-18T21:08:01.394Z,94.70
2018-02-18T21:14:07.403Z,92.60
2018-02-18T21:16:56.955Z,89.05
2018-02-18T21:23:39.697Z,83.45
2018-02-18T21:29:40.586Z,89.85
2018-02-18T21:32:11.320Z,91.97
2018-02-18T21:34:54.235Z,87.35
2018-02-18T21:41:12.558Z,84.72
2018-02-18T21:44:00.185Z,83.90
2018-02-18T21:46:47.389Z,86.18
2018-02-18T21:49:30.107Z,75.55
2018-02-18T21:52:39.111Z,72.32
2018-02-18T21:55:37.315Z,84.72
2018-02-18T22:01:35.995Z,76.90
2018-02-18T22:07:32.412Z,74.43
2018-02-18T22:13:02.874Z,73.60
2018-02-18T22:15:53.465Z,85.57
2018-02-18T22:18:40.242Z,79.00
2018-02-18T22:21:26.219Z,73.00
2018-02-18T22:24:20.865Z,83.20
2018-02-18T22:27:05.600Z,75.40
2018-02-18T22:30:01.116Z,60.88
2018-02-18T22:35:49.292Z,59.63
2018-02-18T22:38:35.669Z,75.43
2018-02-18T22:41:24.753Z,62.55
2018-02-18T22:44:39.209Z,64.12
2018-02-18T22:47:40.019Z,59.05
2018-02-18T22:53:44.512Z,60.03
2018-02-18T22:56:26.801Z,60.05
2018-02-18T22:59:16.513Z,55.80
2018-02-18T23:40:11.042Z,57.38
2018-02-18T23:42:54.661Z,57.62
2018-02-18T23:45:27.563Z,55.92
2018-02-18T23:48:06.669Z,60.33
2018-02-18T23:50:38.529Z,53.65
2018-02-18T23:53:13.687Z,58.90
2018-02-18T23:55:52.224Z,55.83
2018-02-18T23:58:30.112Z,54.17
